Time;durP1;ratioP1;P1;durP2;ratioP2;P2;SDS_P1;SDS_P2;PMS_P1;PMS_P2;Temp;Humidity;BMP_temperature;BMP_pressure;BME280_temperature;BME280_humidity;BME280_pressure;Samples;Min_cycle;Max_cycle;Signal;HPM_P1;HPM_P2
2021/11/13 00:00:27;;;;;;;72.27;36.60;;;;;;;1.86;76.43;97457.81;1633587;87;25799;-86
2021/11/13 00:02:55;;;;;;;66.90;37.03;;;;;;;1.84;76.49;97458.95;1635783;87;25939;-86
2021/11/13 00:05:22;;;;;;;66.42;37.03;;;;;;;1.85;76.54;97459.30;1638657;87;25834;-86
2021/11/13 00:07:48;;;;;;;69.82;38.42;;;;;;;1.83;76.46;97454.61;1638616;87;25821;-86
2021/11/13 00:10:18;;;;;;;65.35;35.92;;;;;;;1.82;76.47;97457.77;1638699;86;26494;-85
2021/11/13 00:12:44;;;;;;;60.45;35.80;;;;;;;1.79;76.41;97453.62;1651956;86;25837;-85
2021/11/13 00:15:12;;;;;;;60.85;37.08;;;;;;;1.76;76.38;97448.59;1652509;86;27404;-85
2021/11/13 00:17:38;;;;;;;63.38;37.88;;;;;;;1.75;76.45;97445.59;1652450;86;25884;-85
2021/11/13 00:20:06;;;;;;;69.30;39.38;;;;;;;1.74;76.47;97446.58;1652485;86;25817;-85
2021/11/13 00:22:34;;;;;;;71.82;40.75;;;;;;;1.70;76.34;97439.05;1652722;86;26535;-85
2021/11/13 00:25:01;;;;;;;72.20;41.08;;;;;;;1.67;76.37;97443.38;1652500;86;25785;-86
2021/11/13 00:27:27;;;;;;;78.50;41.98;;;;;;;1.60;76.28;97443.14;1652497;86;27531;-86
2021/11/13 00:29:54;;;;;;;73.10;42.67;;;;;;;1.60;76.33;97443.14;1652419;86;25798;-86
2021/11/13 00:32:20;;;;;;;68.62;39.25;;;;;;;1.59;76.33;97435.31;1652537;86;25718;-86
2021/11/13 00:34:47;;;;;;;70.83;40.08;;;;;;;1.57;76.28;97438.13;1652551;86;25833;-87
2021/11/13 00:37:13;;;;;;;80.67;41.15;;;;;;;1.53;76.22;97434.61;1652661;86;26064;-87
2021/11/13 00:39:40;;;;;;;69.70;39.27;;;;;;;1.49;76.25;97438.06;1652442;86;27484;-87
2021/11/13 00:42:07;;;;;;;68.85;39.83;;;;;;;1.47;76.25;97437.88;1652447;86;25340;-87
2021/11/13 00:44:34;;;;;;;64.95;38.25;;;;;;;1.43;76.24;97427.56;1652563;86;25842;-86
2021/11/13 00:47:01;;;;;;;70.08;38.70;;;;;;;1.43;76.21;97429.39;1652541;86;25751;-86
2021/11/13 00:49:29;;;;;;;66.20;38.78;;;;;;;1.39;76.16;97428.85;1652822;86;25814;-87
2021/11/13 00:51:56;;;;;;;70.03;38.23;;;;;;;1.37;76.17;97429.98;1652593;86;27395;-87
2021/11/13 00:54:23;;;;;;;71.45;38.35;;;;;;;1.34;76.19;97428.95;1651796;86;25829;-87
2021/11/13 00:56:50;;;;;;;68.60;39.73;;;;;;;1.33;76.25;97423.29;1637024;86;26042;-86
2021/11/13 00:59:17;;;;;;;69.58;37.53;;;;;;;1.32;76.29;97416.33;1626534;88;26517;-87
2021/11/13 01:01:44;;;;;;;64.17;36.93;;;;;;;1.33;76.34;97417.97;1633068;87;25750;-87
2021/11/13 01:04:11;;;;;;;71.42;39.45;;;;;;;1.31;76.36;97414.17;1653795;86;28294;-87
2021/11/13 01:06:37;;;;;;;72.10;39.73;;;;;;;1.30;76.45;97411.66;1653731;86;25859;-86
2021/11/13 01:09:04;;;;;;;84.92;42.35;;;;;;;1.30;76.54;97407.67;1642965;87;25804;-86
2021/11/13 01:11:31;;;;;;;114.37;52.95;;;;;;;1.28;76.61;97410.47;1642978;87;26403;-87
2021/11/13 01:13:58;;;;;;;137.47;59.15;;;;;;;1.27;76.64;97407.97;1643118;87;25729;-87
2021/11/13 01:16:26;;;;;;;83.65;44.18;;;;;;;1.24;76.65;97404.27;1641538;87;27446;-86
2021/11/13 01:18:54;;;;;;;74.30;42.40;;;;;;;1.23;76.60;97407.42;1653800;86;26699;-87
2021/11/13 01:21:23;;;;;;;75.28;43.33;;;;;;;1.22;76.51;97402.26;1653870;86;25770;-88
2021/11/13 01:23:50;;;;;;;76.35;41.53;;;;;;;1.21;76.45;97403.27;1642786;87;25812;-87
2021/11/13 01:26:17;;;;;;;74.62;41.75;;;;;;;1.19;76.38;97399.92;1643038;87;25310;-88
2021/11/13 01:28:43;;;;;;;73.70;41.33;;;;;;;1.17;76.36;97401.41;1642919;87;27410;-88
2021/11/13 01:31:10;;;;;;;74.40;41.92;;;;;;;1.16;76.36;97405.55;1641498;87;25782;-88
2021/11/13 01:33:38;;;;;;;73.57;42.73;;;;;;;1.15;76.40;97399.39;1653818;86;25809;-88
2021/11/13 01:36:05;;;;;;;70.37;43.08;;;;;;;1.15;76.39;97397.22;1625314;86;26516;-87
2021/11/13 01:38:32;;;;;;;81.55;44.10;;;;;;;1.16;76.42;97403.72;1642997;87;25825;-87
2021/11/13 01:40:59;;;;;;;73.90;42.13;;;;;;;1.18;76.41;97399.59;1642954;87;27448;-87
2021/11/13 01:43:25;;;;;;;86.87;51.37;;;;;;;1.17;76.42;97400.08;1642978;87;25788;-87
2021/11/13 01:45:52;;;;;;;76.90;43.75;;;;;;;1.15;76.46;97393.23;1641594;87;25866;-87
2021/11/13 01:48:19;;;;;;;82.20;44.88;;;;;;;1.16;76.51;97389.59;1653823;86;26483;-87
2021/11/13 01:50:47;;;;;;;74.92;43.38;;;;;;;1.15;76.53;97390.58;1653887;86;25709;-87
2021/11/13 01:53:13;;;;;;;86.70;43.60;;;;;;;1.14;76.53;97389.73;1642955;86;27553;-87
2021/11/13 01:55:41;;;;;;;75.62;41.63;;;;;;;1.14;76.49;97387.58;1635175;87;25819;-87
2021/11/13 01:58:12;;;;;;;79.95;41.98;;;;;;;1.13;76.46;97379.25;1633414;87;25776;-87
2021/11/13 02:00:46;;;;;;;74.40;40.30;;;;;;;1.12;76.43;97374.43;1671438;84;25770;-87
2021/11/13 02:03:14;;;;;;;72.72;40.10;;;;;;;1.07;76.33;97374.91;1671154;85;25764;-87
2021/11/13 02:05:41;;;;;;;76.10;39.95;;;;;;;1.03;76.36;97372.20;1670704;84;28166;-86
2021/11/13 02:08:08;;;;;;;74.65;40.83;;;;;;;1.02;76.40;97377.67;1671283;85;25734;-88
2021/11/13 02:10:35;;;;;;;74.53;39.95;;;;;;;1.01;76.54;97366.20;1671575;85;25756;-88
2021/11/13 02:13:02;;;;;;;78.72;38.33;;;;;;;1.01;76.63;97368.02;1671485;85;25833;-88
2021/11/13 02:15:29;;;;;;;75.95;38.53;;;;;;;1.00;76.73;97369.84;1671409;84;25751;-88
2021/11/13 02:17:57;;;;;;;66.80;35.10;;;;;;;1.00;76.79;97360.54;1671393;84;27366;-88
2021/11/13 02:20:43;;;;;;;66.92;34.98;;;;;;;0.99;76.84;97362.85;1671262;85;25815;-89
2021/11/13 02:23:19;;;;;;;59.10;36.25;;;;;;;0.99;76.84;97365.52;1671485;85;25321;-87
2021/11/13 02:25:49;;;;;;;63.80;35.60;;;;;;;0.98;76.81;97361.18;1671484;85;25856;-88
2021/11/13 02:28:19;;;;;;;61.20;35.70;;;;;;;0.97;76.75;97362.17;1671352;85;25865;-87
2021/11/13 02:30:48;;;;;;;60.83;35.58;;;;;;;0.96;76.69;97359.20;1671358;85;27424;-87
2021/11/13 02:33:15;;;;;;;64.22;37.53;;;;;;;0.93;76.65;97358.16;1671366;85;25775;-87
2021/11/13 02:35:43;;;;;;;68.33;38.30;;;;;;;0.91;76.69;97353.49;1671406;85;25834;-87
2021/11/13 02:38:31;;;;;;;63.83;36.80;;;;;;;0.90;76.70;97349.16;1673536;84;25755;-85
2021/11/13 02:41:00;;;;;;;70.47;37.23;;;;;;;0.88;76.74;97335.19;1671506;84;25807;-85
2021/11/13 02:43:31;;;;;;;63.55;34.67;;;;;;;0.83;76.85;97342.80;1671458;85;27384;-85
2021/11/13 02:46:02;;;;;;;60.05;34.00;;;;;;;0.83;76.93;97343.29;1671293;84;25700;-85
2021/11/13 02:48:33;;;;;;;57.70;33.78;;;;;;;0.83;76.95;97342.80;1671428;84;25775;-85
2021/11/13 02:51:00;;;;;;;66.60;36.20;;;;;;;0.84;76.96;97344.47;1671426;84;25691;-84
2021/11/13 02:53:28;;;;;;;66.12;36.15;;;;;;;0.85;76.97;97341.28;1671429;85;25807;-84
2021/11/13 02:55:56;;;;;;;66.33;35.48;;;;;;;0.86;76.97;97334.98;1671109;84;27448;-84
2021/11/13 02:58:25;;;;;;;63.00;33.78;;;;;;;0.85;76.99;97336.81;1671092;85;26073;-84
2021/11/13 03:00:57;;;;;;;64.40;35.92;;;;;;;0.84;77.01;97336.50;1671339;85;25799;-85
2021/11/13 03:03:24;;;;;;;68.05;36.63;;;;;;;0.83;77.02;97330.84;1648566;85;26447;-84
2021/11/13 03:05:55;;;;;;;62.90;36.05;;;;;;;0.83;77.00;97326.86;1642921;86;25801;-84
2021/11/13 03:08:25;;;;;;;63.38;36.33;;;;;;;0.83;76.96;97327.34;1642794;86;28157;-84
2021/11/13 03:10:56;;;;;;;62.95;36.73;;;;;;;0.79;76.98;97314.84;1642797;86;25839;-84
2021/11/13 03:13:24;;;;;;;70.62;40.03;;;;;;;0.79;76.95;97314.84;1642997;86;25870;-84
2021/11/13 03:15:52;;;;;;;67.00;37.17;;;;;;;0.76;76.89;97319.13;1642948;86;26393;-83
2021/11/13 03:18:19;;;;;;;64.17;35.63;;;;;;;0.75;76.88;97316.63;1643052;86;25767;-83
2021/11/13 03:20:47;;;;;;;59.08;35.23;;;;;;;0.72;76.88;97315.12;1642828;86;27389;-83
2021/11/13 03:23:16;;;;;;;57.35;33.67;;;;;;;0.72;76.93;97320.44;1643269;86;25811;-84
2021/11/13 03:26:09;;;;;;;72.05;40.73;;;;;;;0.72;76.89;97319.11;1643184;86;25784;-83
2021/11/13 03:28:40;;;;;;;67.70;39.08;;;;;;;0.72;76.90;97327.09;1629452;87;25804;-83
2021/11/13 03:31:07;;;;;;;79.32;42.88;;;;;;;0.70;76.83;97311.30;1642852;86;25731;-84
2021/11/13 03:33:38;;;;;;;78.28;45.00;;;;;;;0.70;76.75;97313.11;1642929;86;27395;-83
2021/11/13 03:36:06;;;;;;;74.20;41.42;;;;;;;0.70;76.71;97315.77;1629278;86;25790;-83
2021/11/13 03:38:36;;;;;;;80.77;45.90;;;;;;;0.70;76.72;97314.44;1642964;86;25821;-83
2021/11/13 03:41:03;;;;;;;76.72;45.17;;;;;;;0.68;76.68;97309.77;1642803;86;26240;-83
2021/11/13 03:43:30;;;;;;;73.55;42.75;;;;;;;0.68;76.72;97313.27;1643361;86;25762;-83
2021/11/13 03:45:56;;;;;;;78.05;45.20;;;;;;;0.66;76.63;97313.06;1630717;87;27459;-84
2021/11/13 03:48:23;;;;;;;71.70;42.50;;;;;;;0.62;76.63;97312.52;1642750;86;26421;-84
2021/11/13 03:50:50;;;;;;;77.82;43.50;;;;;;;0.61;76.62;97309.52;1642634;86;25776;-85
2021/11/13 03:53:16;;;;;;;71.80;40.83;;;;;;;0.57;76.61;97302.87;1642940;86;25796;-84
2021/11/13 03:55:43;;;;;;;74.15;41.68;;;;;;;0.54;76.55;97308.97;1642840;86;25835;-84
2021/11/13 03:58:10;;;;;;;71.17;41.28;;;;;;;0.52;76.62;97305.62;1645015;86;27384;-83
2021/11/13 04:00:37;;;;;;;73.85;41.30;;;;;;;0.49;76.62;97303.26;1653635;86;25757;-83
2021/11/13 04:03:04;;;;;;;77.15;42.03;;;;;;;0.46;76.60;97306.23;1653264;86;25773;-83
2021/11/13 04:05:30;;;;;;;74.58;41.75;;;;;;;0.44;76.65;97297.58;1674209;85;26344;-83
2021/11/13 04:07:57;;;;;;;74.37;43.80;;;;;;;0.43;76.64;97293.25;1653780;86;26324;-83
2021/11/13 04:10:25;;;;;;;73.70;42.05;;;;;;;0.40;76.61;97304.17;1653710;86;27571;-83
2021/11/13 04:12:52;;;;;;;75.15;42.60;;;;;;;0.38;76.68;97299.00;1679480;85;26044;-83
2021/11/13 04:15:19;;;;;;;67.30;39.23;;;;;;;0.39;76.62;97297.19;1685175;85;25769;-85
2021/11/13 04:17:48;;;;;;;65.10;39.20;;;;;;;0.38;76.66;97292.37;1685092;85;26550;-85
2021/11/13 04:20:17;;;;;;;69.42;38.10;;;;;;;0.39;76.64;97290.55;1685012;85;25767;-85
2021/11/13 04:22:46;;;;;;;77.50;41.63;;;;;;;0.32;76.58;97292.49;1685052;84;27396;-84
2021/11/13 04:25:13;;;;;;;81.30;43.38;;;;;;;0.32;76.70;97287.19;1685000;84;25802;-84
2021/11/13 04:27:41;;;;;;;82.17;42.45;;;;;;;0.34;76.69;97287.04;1685009;85;25728;-84
2021/11/13 04:30:12;;;;;;;80.55;42.60;;;;;;;0.35;76.71;97291.36;1685063;85;26949;-84
2021/11/13 04:32:40;;;;;;;69.45;40.63;;;;;;;0.33;76.69;97283.55;1642869;86;25782;-83
2021/11/13 04:35:23;;;;;;;71.77;38.60;;;;;;;0.33;76.69;97280.89;1639738;87;27460;-84
2021/11/13 04:37:52;;;;;;;;;;;;;;;0.33;76.69;97275.58;1645233;86;25820;-84
2021/11/13 04:40:21;;;;;;;71.25;40.12;;;;;;;0.31;76.72;97278.88;1639902;87;25758;-84
2021/11/13 04:42:48;;;;;;;69.82;39.63;;;;;;;0.30;76.69;97282.51;1643076;87;25815;-84
2021/11/13 04:45:15;;;;;;;67.90;37.93;;;;;;;0.30;76.75;97275.03;1639950;87;26334;-84
2021/11/13 04:47:42;;;;;;;65.40;37.00;;;;;;;0.29;76.72;97276.86;1643131;87;27432;-84
2021/11/13 04:50:14;;;;;;;60.33;35.70;;;;;;;0.30;76.70;97281.19;1639698;87;26488;-83
2021/11/13 04:52:41;;;;;;;64.80;35.78;;;;;;;0.29;76.69;97276.02;1643102;87;25805;-84
2021/11/13 04:55:08;;;;;;;63.83;35.30;;;;;;;0.22;76.71;97281.11;1639874;87;26347;-83
2021/11/13 04:57:35;;;;;;;63.42;37.03;;;;;;;0.23;76.80;97281.95;1642850;87;25990;-83
2021/11/13 05:00:04;;;;;;;59.42;34.30;;;;;;;0.22;76.82;97274.96;1641633;87;27538;-84
2021/11/13 05:02:31;;;;;;;64.47;35.43;;;;;;;0.23;76.88;97276.64;1656738;86;25859;-84
2021/11/13 05:04:57;;;;;;;66.90;38.05;;;;;;;0.24;76.87;97280.44;1656734;86;25861;-83
2021/11/13 05:07:24;;;;;;;66.85;37.33;;;;;;;0.24;76.82;97273.80;1643694;86;25911;-83
2021/11/13 05:09:52;;;;;;;70.20;37.23;;;;;;;0.25;76.86;97277.30;1643670;87;25740;-83
2021/11/13 05:12:18;;;;;;;71.53;38.83;;;;;;;0.23;76.88;97280.13;1618146;87;28001;-83
2021/11/13 05:14:45;;;;;;;73.22;39.48;;;;;;;0.19;76.79;97278.75;1611942;88;25798;-83
2021/11/13 05:17:12;;;;;;;77.45;40.38;;;;;;;0.17;76.85;97286.02;1611966;87;25743;-85
2021/11/13 05:19:38;;;;;;;73.97;39.27;;;;;;;0.14;76.95;97273.04;1612039;88;26455;-83
2021/11/13 05:22:06;;;;;;;69.65;38.50;;;;;;;0.18;77.02;97279.73;1612022;88;25776;-83
2021/11/13 05:24:33;;;;;;;68.83;38.70;;;;;;;0.18;76.98;97281.05;1612183;88;27497;-83
2021/11/13 05:27:00;;;;;;;66.30;37.58;;;;;;;0.19;77.02;97276.09;1611964;88;25815;-83
2021/11/13 05:29:26;;;;;;;66.75;35.52;;;;;;;0.21;77.04;97281.25;1612088;88;25889;-83
2021/11/13 05:31:53;;;;;;;79.67;40.03;;;;;;;0.23;77.04;97279.30;1612096;88;26511;-83
2021/11/13 05:34:19;;;;;;;101.40;44.73;;;;;;;0.23;76.98;97280.62;1611983;88;25935;-82
2021/11/13 05:36:46;;;;;;;118.53;48.63;;;;;;;0.21;76.95;97279.44;1612031;88;28187;-82
2021/11/13 05:39:14;;;;;;;103.85;46.35;;;;;;;0.22;76.98;97278.45;1611929;88;25843;-83
2021/11/13 05:41:42;;;;;;;103.92;46.37;;;;;;;0.21;76.96;97284.75;1611971;88;25835;-83
2021/11/13 05:44:09;;;;;;;113.30;48.28;;;;;;;0.19;76.97;97277.42;1626242;87;26037;-83
2021/11/13 05:46:35;;;;;;;104.35;46.80;;;;;;;0.20;76.99;97277.77;1656811;86;26261;-83
2021/11/13 05:49:02;;;;;;;108.78;46.00;;;;;;;0.21;77.00;97282.09;1656520;86;28136;-83
2021/11/13 05:51:29;;;;;;;100.47;43.80;;;;;;;0.21;76.98;97278.11;1643604;86;25854;-83
2021/11/13 05:53:56;;;;;;;108.85;45.83;;;;;;;0.19;77.00;97281.89;1643657;87;26348;-83
2021/11/13 05:56:22;;;;;;;132.63;50.70;;;;;;;0.19;76.98;97276.09;1641478;87;25726;-83
2021/11/13 05:58:49;;;;;;;137.25;53.90;;;;;;;0.19;76.99;97274.77;1656085;86;25747;-83
2021/11/13 06:01:15;;;;;;;133.32;52.08;;;;;;;0.20;77.00;97280.42;1653864;86;27382;-83
2021/11/13 06:03:42;;;;;;;119.50;48.75;;;;;;;0.22;77.00;97276.30;1642933;87;25700;-83
2021/11/13 06:06:08;;;;;;;129.10;52.65;;;;;;;0.21;76.94;97275.45;1642696;87;25827;-83
2021/11/13 06:08:35;;;;;;;107.17;47.53;;;;;;;0.23;77.00;97279.30;1641644;87;26440;-83
2021/11/13 06:11:02;;;;;;;117.13;50.52;;;;;;;0.23;77.04;97281.95;1640982;86;25843;-83
2021/11/13 06:13:28;;;;;;;124.02;52.50;;;;;;;0.24;77.09;97289.73;1621600;88;27463;-83
2021/11/13 06:15:55;;;;;;;102.78;45.35;;;;;;;0.26;77.09;97294.41;1582388;88;26373;-83
2021/11/13 06:18:21;;;;;;;89.90;45.00;;;;;;;0.29;77.09;97292.78;1612033;88;25631;-83
2021/11/13 06:20:48;;;;;;;101.20;51.83;;;;;;;0.32;77.10;97296.97;1611913;88;25946;-83
2021/11/13 06:23:14;;;;;;;124.62;57.53;;;;;;;0.34;77.12;97297.16;1612031;88;25784;-84
2021/11/13 06:25:41;;;;;;;122.00;61.28;;;;;;;0.36;77.15;97301.80;1612103;87;27391;-84
2021/11/13 06:28:07;;;;;;;131.85;67.42;;;;;;;0.36;77.19;97299.16;1612068;88;25751;-84
2021/11/13 06:30:34;;;;;;;121.67;64.00;;;;;;;0.41;77.21;97298.71;1611928;88;25855;-83
2021/11/13 06:33:01;;;;;;;114.20;60.38;;;;;;;0.45;77.23;97297.44;1612060;88;25719;-84
2021/11/13 06:35:27;;;;;;;113.47;58.17;;;;;;;0.47;77.27;97306.09;1611959;88;25788;-83
2021/11/13 06:37:54;;;;;;;102.78;59.18;;;;;;;0.50;77.27;97303.60;1611972;88;28336;-83
2021/11/13 06:40:20;;;;;;;92.45;51.25;;;;;;;0.56;77.26;97309.66;1611874;88;26432;-83
2021/11/13 06:42:47;;;;;;;90.05;49.38;;;;;;;0.60;77.29;97311.03;1612004;87;25739;-83
2021/11/13 06:45:14;;;;;;;92.82;49.23;;;;;;;0.64;77.25;97311.88;1612069;88;25724;-84
2021/11/13 06:47:41;;;;;;;94.17;50.90;;;;;;;0.68;77.28;97315.08;1611971;88;25753;-85
2021/11/13 06:50:10;;;;;;;88.95;45.05;;;;;;;0.71;77.36;97314.78;1612098;88;27406;-85
2021/11/13 06:52:37;;;;;;;83.52;45.58;;;;;;;0.76;77.35;97315.14;1611809;88;25919;-85
2021/11/13 06:55:06;;;;;;;83.67;46.80;;;;;;;0.80;77.33;97318.34;1612014;88;25294;-85
2021/11/13 06:57:32;;;;;;;78.12;43.52;;;;;;;0.83;77.33;97320.21;1611993;88;25751;-85
2021/11/13 06:59:59;;;;;;;77.45;43.13;;;;;;;0.89;77.38;97325.39;1611827;87;25713;-85
2021/11/13 07:02:26;;;;;;;75.30;44.15;;;;;;;0.93;77.36;97330.26;1611779;88;27444;-85
2021/11/13 07:04:55;;;;;;;80.85;45.23;;;;;;;0.97;77.38;97326.78;1611951;88;25847;-85
2021/11/13 07:07:22;;;;;;;73.85;42.03;;;;;;;1.03;77.46;97330.17;1611972;88;25831;-85
2021/11/13 07:09:48;;;;;;;65.60;36.38;;;;;;;1.04;77.48;97328.69;1612014;88;26287;-84
2021/11/13 07:12:15;;;;;;;62.08;33.83;;;;;;;1.08;77.42;97318.09;1611933;88;25832;-84
2021/11/13 07:14:41;;;;;;;70.00;40.45;;;;;;;1.11;77.41;97329.39;1611986;87;27457;-85
2021/11/13 07:17:08;;;;;;;71.92;41.28;;;;;;;1.14;77.39;97321.11;1611849;87;26373;-85
2021/11/13 07:19:35;;;;;;;68.47;40.67;;;;;;;1.20;77.43;97322.67;1611921;88;25866;-84
2021/11/13 07:22:01;;;;;;;82.65;44.45;;;;;;;1.26;77.44;97315.39;1612016;88;25756;-84
2021/11/13 07:24:28;;;;;;;78.92;44.48;;;;;;;1.32;77.47;97322.76;1612145;88;25795;-84
2021/11/13 07:26:55;;;;;;;68.17;41.68;;;;;;;1.37;77.49;97318.28;1621825;87;28284;-84
2021/11/13 07:29:26;;;;;;;78.40;42.55;;;;;;;1.41;77.51;97311.67;1653675;86;25795;-84
2021/11/13 07:31:52;;;;;;;73.07;43.68;;;;;;;1.45;77.58;97311.67;1653685;86;25779;-84
2021/11/13 07:34:19;;;;;;;74.55;41.28;;;;;;;1.54;77.57;97309.42;1642795;87;25718;-84
2021/11/13 07:36:46;;;;;;;67.47;38.05;;;;;;;1.59;77.49;97310.27;1642940;87;25287;-84
2021/11/13 07:39:12;;;;;;;71.37;42.60;;;;;;;1.68;77.50;97306.19;1641370;87;27538;-84
2021/11/13 07:41:39;;;;;;;80.17;45.60;;;;;;;1.80;77.52;97301.42;1653670;86;25797;-84
2021/11/13 07:44:05;;;;;;;87.42;47.08;;;;;;;1.91;77.49;97303.80;1653858;86;26498;-84
2021/11/13 07:46:34;;;;;;;79.55;44.30;;;;;;;2.01;77.46;97299.67;1642959;87;25835;-84
2021/11/13 07:49:00;;;;;;;71.00;41.65;;;;;;;2.11;77.43;97296.38;1642866;87;25836;-84
2021/11/13 07:51:27;;;;;;;71.33;41.40;;;;;;;2.22;77.37;97297.91;1641396;87;27375;-85
2021/11/13 07:53:53;;;;;;;78.25;43.25;;;;;;;2.31;77.33;97295.09;1653712;86;25754;-84
2021/11/13 07:56:20;;;;;;;86.05;46.02;;;;;;;2.40;77.26;97296.81;1653701;86;25787;-85
2021/11/13 07:58:47;;;;;;;77.95;44.83;;;;;;;2.50;77.18;97295.32;1642913;86;26383;-85
2021/11/13 08:01:14;;;;;;;79.12;46.10;;;;;;;2.61;77.16;97286.18;1647953;86;25933;-85
2021/11/13 08:03:40;;;;;;;87.37;45.85;;;;;;;2.72;77.13;97297.35;1695333;84;27505;-85
2021/11/13 08:06:07;;;;;;;83.07;47.15;;;;;;;2.81;77.09;97296.36;1664481;86;25715;-85
2021/11/13 08:08:34;;;;;;;94.85;51.63;;;;;;;2.91;77.02;97296.19;1695325;84;25764;-85
2021/11/13 08:11:01;;;;;;;91.10;51.63;;;;;;;3.00;76.92;97285.88;1654089;86;26680;-85
2021/11/13 08:13:28;;;;;;;92.20;49.13;;;;;;;3.07;76.81;97286.86;1668433;85;25807;-85
2021/11/13 08:15:54;;;;;;;97.12;49.20;;;;;;;3.16;76.72;97285.85;1622113;87;28128;-85
2021/11/13 08:18:21;;;;;;;82.60;44.55;;;;;;;3.34;76.91;97287.02;1668322;85;26648;-85
2021/11/13 08:20:49;;;;;;;68.02;37.25;;;;;;;3.50;76.76;97287.50;1668143;85;26329;-85
2021/11/13 08:23:16;;;;;;;60.80;34.38;;;;;;;3.66;76.78;97280.77;1638620;87;25799;-86
2021/11/13 08:25:44;;;;;;;69.17;37.95;;;;;;;3.87;76.77;97279.69;1668466;85;25846;-86
2021/11/13 08:28:12;;;;;;;77.35;42.48;;;;;;;4.08;76.72;97277.79;1668432;85;27497;-86
2021/11/13 08:30:40;;;;;;;82.47;44.25;;;;;;;4.29;76.63;97270.00;1638620;87;25785;-86
2021/11/13 08:33:08;;;;;;;78.45;43.68;;;;;;;4.49;76.45;97276.22;1668395;85;25780;-86
2021/11/13 08:35:40;;;;;;;76.50;42.65;;;;;;;4.64;76.21;97275.30;1638701;87;25757;-86
2021/11/13 08:38:11;;;;;;;86.63;44.00;;;;;;;4.87;76.18;97275.80;1616401;87;26398;-86
2021/11/13 08:40:38;;;;;;;75.83;41.73;;;;;;;5.11;75.95;97266.75;1667813;85;27427;-86
2021/11/13 08:43:04;;;;;;;81.05;42.90;;;;;;;5.35;75.75;97263.34;1695321;84;25795;-86
2021/11/13 08:45:31;;;;;;;76.50;40.78;;;;;;;5.62;75.74;97262.41;1664674;86;25702;-86
2021/11/13 08:47:58;;;;;;;75.92;39.50;;;;;;;5.75;75.09;97269.30;1695260;84;25756;-86
2021/11/13 08:50:29;;;;;;;58.60;36.17;;;;;;;5.90;75.10;97266.66;1664540;86;25706;-87
2021/11/13 08:53:00;;;;;;;60.90;35.97;;;;;;;6.09;74.98;97280.31;1695581;84;28150;-91
2021/11/13 08:55:30;;;;;;;65.03;37.08;;;;;;;6.31;74.82;97277.69;1695214;84;25803;-86
2021/11/13 08:57:58;;;;;;;54.42;31.82;;;;;;;6.57;74.71;97269.95;1695232;84;25754;-86
2021/11/13 09:00:36;;;;;;;55.83;32.05;;;;;;;6.86;74.40;97267.19;1661112;86;25739;-87
2021/11/13 09:03:08;;;;;;;52.78;32.15;;;;;;;6.98;73.43;97265.33;1642364;86;25890;-87
2021/11/13 09:05:35;;;;;;;52.65;31.85;;;;;;;7.02;73.65;97265.25;1641556;87;28451;-87
2021/11/13 09:08:02;;;;;;;49.63;32.08;;;;;;;7.40;74.05;97261.75;1656479;86;26533;-89
2021/11/13 09:10:30;;;;;;;50.12;31.52;;;;;;;7.73;73.55;97262.81;1651383;86;25977;-88
2021/11/13 09:12:58;;;;;;;55.58;34.80;;;;;;;8.07;73.15;97263.34;1587454;88;25897;-88
2021/11/13 09:15:29;;;;;;;55.73;34.15;;;;;;;8.33;72.49;97259.16;1611916;88;25857;-88
2021/11/13 09:17:57;;;;;;;43.08;29.12;;;;;;;8.51;72.01;97255.38;1611926;87;27921;-89
2021/11/13 09:20:24;;;;;;;44.00;28.77;;;;;;;8.79;71.62;97249.37;1611784;88;26447;-87
2021/11/13 09:22:52;;;;;;;46.55;28.80;;;;;;;8.86;70.71;97247.51;1612082;88;26348;-87
2021/11/13 09:25:19;;;;;;;42.38;28.62;;;;;;;9.07;71.16;97251.05;1612057;88;25756;-87
2021/11/13 09:27:48;;;;;;;43.15;28.27;;;;;;;9.32;70.95;97253.45;1612100;88;25752;-88
2021/11/13 09:30:25;;;;;;;42.30;27.48;;;;;;;9.44;70.25;97254.48;1612026;88;27506;-88
2021/11/13 09:32:54;;;;;;;42.38;29.40;;;;;;;9.44;69.91;97249.09;1611755;88;26170;-88
2021/11/13 09:35:22;;;;;;;41.50;28.32;;;;;;;9.53;69.54;97238.95;1612047;88;25840;-87
2021/11/13 09:37:49;;;;;;;40.90;27.98;;;;;;;9.40;68.87;97235.75;1612027;87;25834;-87
2021/11/13 09:40:20;;;;;;;40.92;26.65;;;;;;;9.27;69.09;97242.48;1612031;88;26382;-88
2021/11/13 09:42:50;;;;;;;41.55;27.52;;;;;;;9.27;69.24;97232.55;1612012;88;28337;-87
2021/11/13 09:45:17;;;;;;;40.28;27.77;;;;;;;9.38;69.32;97234.61;1612025;88;25779;-87
2021/11/13 09:47:46;;;;;;;43.90;30.00;;;;;;;9.50;69.24;97228.07;1612110;87;25843;-87
2021/11/13 09:50:13;;;;;;;51.65;33.45;;;;;;;9.55;68.95;97220.69;1611941;88;26331;-87
2021/11/13 09:52:41;;;;;;;48.58;34.20;;;;;;;9.62;68.70;97224.22;1612039;88;25862;-87
2021/11/13 09:55:09;;;;;;;54.70;35.98;;;;;;;9.70;68.40;97219.43;1612075;88;27409;-87
2021/11/13 09:57:38;;;;;;;55.17;36.48;;;;;;;9.76;68.30;97219.13;1612023;88;25807;-87
2021/11/13 10:00:10;;;;;;;51.48;35.48;;;;;;;9.82;68.01;97220.95;1611609;87;25786;-87
2021/11/13 10:02:36;;;;;;;52.38;35.55;;;;;;;9.85;67.60;97219.20;1606403;89;25889;-87
2021/11/13 10:05:04;;;;;;;59.05;37.70;;;;;;;10.04;68.02;97214.77;1607869;88;25964;-87
2021/11/13 10:07:32;;;;;;;61.48;39.92;;;;;;;10.38;67.65;97213.66;1607733;87;27227;-87
2021/11/13 10:09:59;;;;;;;59.90;41.65;;;;;;;10.59;67.22;97205.76;1607652;88;25990;-87
2021/11/13 10:12:39;;;;;;;57.33;38.63;;;;;;;10.81;66.99;97208.42;1607479;88;25823;-87
2021/11/13 10:15:29;;;;;;;62.75;40.78;;;;;;;10.98;66.47;97200.12;1607841;89;25799;-87
2021/11/13 10:18:15;;;;;;;60.58;40.55;;;;;;;11.22;66.43;97199.00;1607852;88;25893;-88
2021/11/13 10:20:49;;;;;;;58.23;41.18;;;;;;;11.57;65.92;97186.63;1607691;88;27350;-88
2021/11/13 10:23:30;;;;;;;56.10;37.03;;;;;;;11.81;65.63;97187.14;1607291;88;25733;-88
2021/11/13 10:26:14;;;;;;;56.05;35.78;;;;;;;12.03;65.11;97175.86;1607824;88;25510;-88
2021/11/13 10:28:55;;;;;;;53.02;34.30;;;;;;;12.26;64.25;97175.99;1607725;87;25811;-88
2021/11/13 10:31:35;;;;;;;47.80;30.70;;;;;;;12.44;63.88;97170.53;1634856;87;25818;-88
2021/11/13 10:34:07;;;;;;;46.18;30.97;;;;;;;12.59;62.92;97169.61;1653865;86;26812;-87
2021/11/13 10:36:44;;;;;;;43.98;30.62;;;;;;;12.49;62.75;97166.63;1653488;86;25857;-88
2021/11/13 10:39:20;;;;;;;42.27;29.35;;;;;;;12.55;63.05;97163.55;1642962;87;25982;-89
2021/11/13 10:41:57;;;;;;;44.25;30.23;;;;;;;12.86;63.18;97161.10;1642780;87;25864;-90
2021/11/13 10:44:31;;;;;;;45.05;27.75;;;;;;;12.94;62.36;97159.41;1641653;87;25785;-89
2021/11/13 10:47:01;;;;;;;38.85;27.48;;;;;;;13.23;62.42;97161.27;1653905;86;27446;-89
2021/11/13 10:49:28;;;;;;;39.08;25.25;;;;;;;13.33;61.95;97150.67;1653773;86;25767;-88
2021/11/13 10:51:58;;;;;;;35.13;23.85;;;;;;;13.38;61.56;97150.50;1642893;87;25760;-89
2021/11/13 10:54:25;;;;;;;32.58;23.22;;;;;;;13.36;60.85;97150.73;1642925;87;26311;-89
2021/11/13 10:57:02;;;;;;;29.80;22.55;;;;;;;13.22;60.17;97148.77;1641652;87;25687;-89
2021/11/13 10:59:41;;;;;;;32.50;22.70;;;;;;;13.25;60.79;97153.73;1653762;86;27398;-89
2021/11/13 11:02:13;;;;;;;31.23;22.75;;;;;;;13.58;60.68;97145.54;1653353;86;26474;-89
2021/11/13 11:04:43;;;;;;;33.15;22.75;;;;;;;13.95;60.46;97142.02;1642720;86;32060;-88
2021/11/13 11:07:24;;;;;;;35.05;23.32;;;;;;;14.16;59.99;97137.83;1641397;87;26528;-89
2021/11/13 11:10:12;;;;;;;29.15;22.15;;;;;;;14.40;58.87;97144.87;1653521;85;25764;-89
2021/11/13 11:12:40;;;;;;;31.35;22.42;;;;;;;14.62;58.98;97132.78;1607700;88;27512;-90
2021/11/13 11:15:11;;;;;;;28.60;21.17;;;;;;;14.84;58.16;97129.69;1582390;88;25734;-90
2021/11/13 11:17:39;;;;;;;26.25;19.87;;;;;;;15.07;57.44;97123.28;1612022;88;25802;-90
2021/11/13 11:20:18;;;;;;;28.10;19.95;;;;;;;15.06;56.37;97114.30;1626415;87;25932;-89
2021/11/13 11:22:46;;;;;;;33.42;21.42;;;;;;;14.98;56.66;97111.14;1597828;89;25725;-89
2021/11/13 11:25:15;;;;;;;28.15;21.17;;;;;;;15.09;56.10;97108.91;1646512;86;27792;-91
2021/11/13 11:27:46;;;;;;;32.63;22.93;;;;;;;14.95;55.86;97111.66;1638224;86;26571;-92
2021/11/13 11:30:19;;;;;;;28.35;21.73;;;;;;;15.16;56.27;97110.91;1653436;86;25723;-91